Huntsville, AL

5:05 AM CDT on April 26, 2015 (GMT -0500)
Huntsville International | | Change Station
CLOSE
Current Station
Airport
Location: Huntsville,
Elevation: 643 ft
Nearby Weather Stations

Elev 643 ft 34.64 °N, 86.79 °W | Updated 12 minutes ago

Mostly Cloudy
Mostly Cloudy
67 °F
Feels Like 67 °F
N
6
Wind Variable Wind from WSW

Today
High -- | Low -- °F
--% Chance of Precip.
Yesterday
High -- | Low -- °F
Precip. -- in
6:02 AM 7:27 PM
First Quarter, 54% visible
Pressure 29.62 in
Visibility 5.0 miles
Clouds Scattered Clouds 1800 ft
Mostly Cloudy 2400 ft
Dew Point 64 °F
Humidity 90%
Rainfall 0.09 in
Snow Depth Not available.
UV 0 out of 12
Pollen .90 out of 12
Air Quality Not available.
Flu Activity No Activity
METAR KHSV 260953Z AUTO 25005KT 5SM BR SCT018 BKN024 19/18 A2964 RMK AO2 SLP030 T01940178

More Conditions Fewer Conditions

Pressure 29.62 in
Visibility 5.0 miles
Clouds Scattered Clouds 1800 ft
Mostly Cloudy 2400 ft
Dew Point 64 °F
Humidity 90%
Rainfall 0.09 in
Snow Depth Not available.
UV 0 out of 12
Pollen .90 out of 12
Air Quality Not available.
Flu Activity No Activity
METAR KHSV 260953Z AUTO 25005KT 5SM BR SCT018 BKN024 19/18 A2964 RMK AO2 SLP030 T01940178

More Conditions Fewer Conditions

The full scope of the disaster following a powerful 7.8-magnitude earthquake in Nepal may not come into view for days, but global charities are already sending emergency aid. Click to see how you can help.

10-Day Weather Forecast

Almanac

Astronomy

Apr. 26, 2015 Rise Set
Actual Time
Civil Twilight
Nautical Twilight
Astronomical Twilight
Moon
Length of Visible Light
Length of Day
Tomorrow will be .
, % of the Moon is Illuminated

Today's Extremes

State Highs State Lows

Community

WunderPhotos

Upload Photos

1,816,959 photos uploaded!

WunderBlogs® & News

Nearby

Air Quality

  Air Quality AQ Index Pollutant
Not available.

Snow Depth

Station Depth Elevation

Earthquake Activity

City Distance Mag. Time & Date
Minimum magnitude displayed is 2.5.

Coastal Water Temperatures

Place Temperature

Stations

Nearby Weather Stations

Station Location Temp. Windchill Dew Point Humidity Wind Precip. Elev Updated Type